createdAt,value
2018-03-06T00:00:56.762Z,14.82
2018-03-06T00:03:26.163Z,21.35
2018-03-06T00:05:55.605Z,18.67
2018-03-06T00:08:25.049Z,19.52
2018-03-06T00:10:54.534Z,16.87
2018-03-06T00:13:23.934Z,25.15
2018-03-06T00:15:53.367Z,15.88
2018-03-06T00:18:22.757Z,18.62
2018-03-06T00:20:52.200Z,17.77
2018-03-06T00:23:21.617Z,18.95
2018-03-06T00:25:51.060Z,16.73
2018-03-06T00:28:20.460Z,18.02
2018-03-06T00:30:49.889Z,20.40
2018-03-06T00:33:19.266Z,25.65
2018-03-06T00:35:48.685Z,20.83
2018-03-06T00:38:18.850Z,16.10
2018-03-06T00:40:48.618Z,18.12
2018-03-06T00:43:18.092Z,17.58
2018-03-06T00:45:47.477Z,16.85
2018-03-06T00:48:16.888Z,17.83
2018-03-06T00:50:46.335Z,20.27
2018-03-06T00:53:15.741Z,20.02
2018-03-06T00:55:45.165Z,15.27
2018-03-06T00:58:14.584Z,18.92
2018-03-06T01:00:43.988Z,20.80
2018-03-06T01:03:13.431Z,15.85
2018-03-06T01:05:42.844Z,16.08
2018-03-06T01:08:12.274Z,16.87
2018-03-06T01:10:41.745Z,15.23
2018-03-06T01:13:11.189Z,20.20
2018-03-06T01:15:40.685Z,22.62
2018-03-06T01:18:10.139Z,17.67
2018-03-06T01:20:39.586Z,20.77
2018-03-06T01:23:10.341Z,19.05
2018-03-06T01:25:39.733Z,19.45
2018-03-06T01:28:09.167Z,21.48
2018-03-06T01:30:38.562Z,19.65
2018-03-06T01:33:07.970Z,20.55
2018-03-06T01:35:37.372Z,20.67
2018-03-06T01:38:06.812Z,18.98
2018-03-06T01:40:36.216Z,18.40
2018-03-06T01:43:05.613Z,19.58
2018-03-06T01:45:35.051Z,22.55
2018-03-06T01:48:04.975Z,23.48
2018-03-06T01:50:34.442Z,22.87
2018-03-06T01:53:03.877Z,22.42
2018-03-06T01:55:33.263Z,27.55
2018-03-06T01:58:02.700Z,25.92
2018-03-06T02:00:32.107Z,28.05
2018-03-06T02:03:01.545Z,21.52
2018-03-06T02:05:30.956Z,28.00
2018-03-06T02:08:00.387Z,25.95
2018-03-06T02:10:29.894Z,22.08
2018-03-06T02:12:59.318Z,27.98
2018-03-06T02:15:29.106Z,29.50
2018-03-06T02:17:58.557Z,29.63
2018-03-06T02:20:27.940Z,30.45
2018-03-06T02:22:57.456Z,24.60
2018-03-06T02:25:26.874Z,27.37
2018-03-06T02:27:56.318Z,25.98
2018-03-06T02:30:25.727Z,20.80
2018-03-06T02:32:55.162Z,27.23
2018-03-06T02:35:24.602Z,29.77
2018-03-06T02:37:54.004Z,22.73
2018-03-06T02:40:23.434Z,24.12
2018-03-06T02:42:52.844Z,24.67
2018-03-06T02:45:22.266Z,24.48
2018-03-06T02:47:51.713Z,22.23
2018-03-06T02:50:21.134Z,30.65
2018-03-06T02:52:50.538Z,23.35
2018-03-06T02:55:20.492Z,23.00
2018-03-06T02:57:49.872Z,21.35
2018-03-06T03:00:19.292Z,25.65
2018-03-06T03:02:48.689Z,26.73
2018-03-06T03:05:18.136Z,23.45
2018-03-06T03:07:47.539Z,28.55
2018-03-06T03:10:16.996Z,32.22
2018-03-06T03:12:46.452Z,28.92
2018-03-06T03:15:15.867Z,34.25
2018-03-06T03:17:45.297Z,33.65
2018-03-06T03:20:14.704Z,28.42
2018-03-06T03:22:44.140Z,29.02
2018-03-06T03:25:13.555Z,31.37
2018-03-06T03:27:42.998Z,29.25
2018-03-06T03:30:12.454Z,25.20
2018-03-06T03:32:41.884Z,31.55
2018-03-06T03:35:11.457Z,33.78
2018-03-06T03:37:40.920Z,35.88
2018-03-06T03:40:11.029Z,33.90
2018-03-06T03:42:40.473Z,33.85
2018-03-06T03:45:10.201Z,33.20
2018-03-06T03:47:39.699Z,32.45
2018-03-06T03:50:09.422Z,33.83
2018-03-06T03:52:38.883Z,24.50
2018-03-06T03:55:08.479Z,32.15
2018-03-06T03:57:37.951Z,29.33
2018-03-06T04:00:07.620Z,29.37
2018-03-06T04:02:37.080Z,32.50
2018-03-06T04:05:06.787Z,34.17
2018-03-06T04:07:36.362Z,30.62
2018-03-06T04:10:06.350Z,31.45
2018-03-06T04:12:35.844Z,20.58
2018-03-06T04:15:05.537Z,26.73
2018-03-06T04:17:35.008Z,26.80
2018-03-06T04:20:04.556Z,25.83
2018-03-06T04:22:33.994Z,25.62
2018-03-06T04:25:03.677Z,29.58
2018-03-06T04:27:33.106Z,29.37
2018-03-06T04:30:03.042Z,31.02
2018-03-06T04:32:32.488Z,30.98
2018-03-06T04:35:01.927Z,33.10
2018-03-06T04:37:31.364Z,31.23
2018-03-06T04:40:00.804Z,30.48
2018-03-06T04:42:30.221Z,26.92
2018-03-06T04:44:59.623Z,33.45
2018-03-06T04:47:29.050Z,32.30
2018-03-06T04:49:58.441Z,28.65
2018-03-06T04:52:27.945Z,27.05
2018-03-06T04:54:57.344Z,30.27
2018-03-06T04:57:26.754Z,31.80
2018-03-06T04:59:56.191Z,35.13
2018-03-06T05:02:25.621Z,35.75
2018-03-06T05:04:55.063Z,31.52
2018-03-06T05:07:24.483Z,33.40
2018-03-06T05:09:53.900Z,36.80
2018-03-06T05:12:23.331Z,32.40
2018-03-06T05:14:52.761Z,27.15
2018-03-06T05:17:22.258Z,34.83
2018-03-06T05:19:51.753Z,34.40
2018-03-06T05:22:21.161Z,30.23
2018-03-06T05:24:50.591Z,28.25
2018-03-06T05:27:20.213Z,34.33
2018-03-06T05:29:49.680Z,32.28
2018-03-06T05:32:19.203Z,30.35
2018-03-06T05:34:49.249Z,35.47
2018-03-06T05:37:18.711Z,29.87
2018-03-06T05:39:48.114Z,37.80
2018-03-06T05:42:17.553Z,29.42
2018-03-06T05:44:46.973Z,29.27
2018-03-06T05:47:16.423Z,26.55
2018-03-06T05:49:45.837Z,29.98
2018-03-06T05:52:15.271Z,33.78
2018-03-06T05:54:44.681Z,29.83
2018-03-06T05:57:14.184Z,29.27
2018-03-06T05:59:43.675Z,34.45
2018-03-06T06:02:13.124Z,35.90
2018-03-06T06:04:42.569Z,31.87
2018-03-06T06:07:11.999Z,36.08
2018-03-06T06:09:41.436Z,41.53
2018-03-06T06:12:10.844Z,38.20
2018-03-06T06:14:40.369Z,30.73
2018-03-06T06:17:09.990Z,29.55
2018-03-06T06:19:39.402Z,30.95
2018-03-06T06:22:08.826Z,37.55
2018-03-06T06:24:38.216Z,34.00
2018-03-06T06:27:07.639Z,36.85
2018-03-06T06:29:37.051Z,35.72
2018-03-06T06:32:06.471Z,32.60
2018-03-06T06:34:35.891Z,31.90
2018-03-06T06:37:05.329Z,31.83
2018-03-06T06:39:34.741Z,30.65
2018-03-06T06:42:04.182Z,34.30
2018-03-06T06:44:33.574Z,28.73
2018-03-06T06:47:03.061Z,29.63
2018-03-06T06:49:32.470Z,30.60
2018-03-06T06:52:01.889Z,32.42
2018-03-06T06:54:31.333Z,29.92
2018-03-06T06:57:00.742Z,32.53
2018-03-06T06:59:30.197Z,34.47
2018-03-06T07:01:59.597Z,33.20
2018-03-06T07:04:29.021Z,29.35
2018-03-06T07:06:58.434Z,39.88
2018-03-06T07:09:27.910Z,38.17
2018-03-06T07:11:57.328Z,39.65
2018-03-06T07:14:26.841Z,34.33
2018-03-06T07:16:56.338Z,30.25
2018-03-06T07:19:25.822Z,28.40
2018-03-06T07:21:55.333Z,33.70
2018-03-06T07:24:24.765Z,32.22
2018-03-06T07:26:54.161Z,34.40
2018-03-06T07:29:23.649Z,30.40
2018-03-06T07:31:53.061Z,37.97
2018-03-06T07:34:22.567Z,37.13
2018-03-06T07:36:51.971Z,41.03
2018-03-06T07:39:21.387Z,38.45
2018-03-06T07:41:50.852Z,40.50
2018-03-06T07:44:20.256Z,37.67
2018-03-06T07:46:49.812Z,34.92
2018-03-06T07:49:19.191Z,36.90
2018-03-06T07:51:48.645Z,41.95
2018-03-06T07:54:18.123Z,41.30
2018-03-06T07:56:47.541Z,38.72
2018-03-06T07:59:16.969Z,34.90
2018-03-06T08:01:46.440Z,35.90
2018-03-06T08:04:15.826Z,37.08
2018-03-06T08:06:45.270Z,37.28
2018-03-06T08:09:14.689Z,40.38
2018-03-06T08:11:44.252Z,44.92
2018-03-06T08:14:14.154Z,39.35
2018-03-06T08:16:43.582Z,40.40
2018-03-06T08:19:12.982Z,41.60
2018-03-06T08:21:42.436Z,42.28
2018-03-06T08:24:11.855Z,43.45
2018-03-06T08:26:41.285Z,43.70
2018-03-06T08:29:10.684Z,45.42
2018-03-06T08:31:40.115Z,44.22
2018-03-06T08:34:09.510Z,43.70
2018-03-06T08:36:38.944Z,45.45
2018-03-06T08:39:08.379Z,45.33
2018-03-06T08:41:37.818Z,47.62
2018-03-06T08:44:07.235Z,48.15
2018-03-06T08:46:36.676Z,44.00
2018-03-06T08:49:06.085Z,49.75
2018-03-06T08:51:35.554Z,46.75
2018-03-06T08:54:04.991Z,50.88
2018-03-06T08:56:39.458Z,55.83
2018-03-06T08:59:08.886Z,56.40
2018-03-06T09:01:38.349Z,40.35
2018-03-06T09:04:07.759Z,47.53
2018-03-06T09:06:37.212Z,45.63
2018-03-06T09:09:06.603Z,51.70
2018-03-06T09:11:36.182Z,48.67
2018-03-06T09:14:05.590Z,53.67
2018-03-06T09:16:35.031Z,59.40
2018-03-06T09:19:04.419Z,49.72
2018-03-06T09:21:33.840Z,48.20
2018-03-06T09:24:03.253Z,47.88
2018-03-06T09:26:33.296Z,45.85
2018-03-06T09:29:02.697Z,49.47
2018-03-06T09:31:32.181Z,45.97
2018-03-06T09:34:02.336Z,40.55
2018-03-06T09:36:31.781Z,40.53
2018-03-06T09:39:01.221Z,44.75
2018-03-06T09:41:31.004Z,43.85
2018-03-06T09:44:00.408Z,41.13
2018-03-06T09:46:29.860Z,39.00
2018-03-06T09:48:59.291Z,36.08
2018-03-06T09:51:28.731Z,36.28
2018-03-06T09:53:58.151Z,38.72
2018-03-06T09:56:27.557Z,37.40
2018-03-06T09:58:56.988Z,36.28
2018-03-06T10:01:26.419Z,39.58
2018-03-06T10:03:55.836Z,36.35
2018-03-06T10:06:25.274Z,37.15
2018-03-06T10:08:54.678Z,31.70
2018-03-06T10:11:24.174Z,38.53
2018-03-06T10:13:53.649Z,35.08
2018-03-06T10:16:23.060Z,37.40
2018-03-06T10:18:52.513Z,39.67
2018-03-06T10:21:21.965Z,35.65
2018-03-06T10:23:51.453Z,36.05
2018-03-06T10:26:20.837Z,36.10
2018-03-06T10:28:50.296Z,41.83
2018-03-06T10:31:19.681Z,40.95
2018-03-06T10:33:49.130Z,36.92
2018-03-06T10:36:18.556Z,47.03
2018-03-06T10:38:47.960Z,46.42
2018-03-06T10:41:17.391Z,38.20
2018-03-06T10:43:46.834Z,39.35
2018-03-06T10:46:16.218Z,29.73
2018-03-06T10:48:45.660Z,31.42
2018-03-06T10:51:15.097Z,40.35
2018-03-06T10:53:44.498Z,37.90
2018-03-06T10:56:13.933Z,31.77
2018-03-06T10:58:43.354Z,42.40
2018-03-06T11:01:18.480Z,34.70
2018-03-06T11:03:47.876Z,37.85
2018-03-06T11:06:17.252Z,40.12
2018-03-06T11:08:46.691Z,38.70
2018-03-06T11:11:16.093Z,42.65
2018-03-06T11:13:45.523Z,39.72
2018-03-06T11:16:14.991Z,35.35
2018-03-06T11:18:44.410Z,34.28
2018-03-06T11:21:13.821Z,42.35
2018-03-06T11:23:43.261Z,39.95
2018-03-06T11:26:12.709Z,35.35
2018-03-06T11:28:42.382Z,38.90
2018-03-06T11:31:11.811Z,35.38
2018-03-06T11:33:41.214Z,35.72
2018-03-06T11:36:10.665Z,40.17
2018-03-06T11:38:40.074Z,35.55
2018-03-06T11:41:09.538Z,35.97
2018-03-06T11:43:38.963Z,40.78
2018-03-06T11:46:08.397Z,37.70
2018-03-06T11:48:37.835Z,36.38
2018-03-06T11:51:07.280Z,35.00
2018-03-06T11:53:36.713Z,36.80
2018-03-06T11:56:06.164Z,37.03
2018-03-06T11:58:35.556Z,41.33
2018-03-06T12:01:04.996Z,35.88
2018-03-06T12:03:34.407Z,38.28
2018-03-06T12:06:03.834Z,42.17
2018-03-06T12:08:33.254Z,33.90
2018-03-06T12:11:02.680Z,35.78
2018-03-06T12:13:32.187Z,38.05
2018-03-06T12:16:01.578Z,47.88
2018-03-06T12:18:31.028Z,39.80
2018-03-06T12:21:00.439Z,36.80
2018-03-06T12:23:29.879Z,40.40
2018-03-06T12:25:59.303Z,37.40
2018-03-06T12:28:28.733Z,40.78
2018-03-06T12:30:58.229Z,37.50
2018-03-06T12:33:27.676Z,40.85
2018-03-06T12:35:57.134Z,44.40
2018-03-06T12:38:26.682Z,39.65
2018-03-06T12:40:56.113Z,48.83
2018-03-06T12:43:25.547Z,49.28
2018-03-06T12:45:55.007Z,55.78
2018-03-06T12:48:24.411Z,57.00
2018-03-06T12:50:53.870Z,54.28
2018-03-06T12:53:23.256Z,54.65
2018-03-06T12:55:52.681Z,57.70
2018-03-06T12:58:22.104Z,52.08
2018-03-06T13:00:51.534Z,62.10
2018-03-06T13:03:20.933Z,66.95
2018-03-06T13:05:50.389Z,63.42
2018-03-06T13:08:19.902Z,63.05
2018-03-06T13:10:49.265Z,68.93
2018-03-06T13:13:18.695Z,66.75
2018-03-06T13:15:48.241Z,56.13
2018-03-06T13:18:17.674Z,75.97
2018-03-06T13:20:47.071Z,69.37
2018-03-06T13:23:16.523Z,70.30
2018-03-06T13:25:46.494Z,71.78
2018-03-06T13:28:15.957Z,66.72
2018-03-06T13:30:45.353Z,80.35
2018-03-06T13:33:14.789Z,81.15
2018-03-06T13:35:44.176Z,72.10
2018-03-06T13:38:13.619Z,62.80
2018-03-06T13:40:43.037Z,64.22
2018-03-06T13:43:12.545Z,57.80
2018-03-06T13:45:41.973Z,54.38
2018-03-06T13:48:11.390Z,72.85
2018-03-06T13:50:40.815Z,71.15
2018-03-06T13:53:10.268Z,66.72
2018-03-06T13:55:39.717Z,53.45
2018-03-06T13:58:09.113Z,64.20
2018-03-06T14:00:38.556Z,65.55
2018-03-06T14:03:08.002Z,62.22
2018-03-06T14:05:37.421Z,71.45
2018-03-06T14:08:06.820Z,67.18
2018-03-06T14:10:36.255Z,57.55
2018-03-06T14:13:05.624Z,65.30
2018-03-06T14:15:35.067Z,77.53
2018-03-06T14:18:04.484Z,57.33
2018-03-06T14:20:33.912Z,69.40
2018-03-06T14:23:03.324Z,82.35
2018-03-06T14:25:32.725Z,58.15
2018-03-06T14:28:02.172Z,74.75
2018-03-06T14:30:31.684Z,68.30
2018-03-06T14:33:01.142Z,68.12
2018-03-06T14:35:30.556Z,67.15
2018-03-06T14:37:59.981Z,59.88
2018-03-06T14:40:30.104Z,61.15
2018-03-06T14:42:59.645Z,71.00
2018-03-06T14:45:29.076Z,63.15
2018-03-06T14:47:58.507Z,70.78
2018-03-06T14:50:27.941Z,58.60
2018-03-06T14:52:57.397Z,62.75
2018-03-06T14:55:26.880Z,72.75
2018-03-06T14:57:56.286Z,74.45
2018-03-06T15:00:25.755Z,72.90
2018-03-06T15:02:55.261Z,66.32
2018-03-06T15:05:24.704Z,62.35
2018-03-06T15:07:54.121Z,68.55
2018-03-06T15:10:23.572Z,64.12
2018-03-06T15:12:52.997Z,68.90
2018-03-06T15:15:22.447Z,74.82
2018-03-06T15:17:51.835Z,66.28
2018-03-06T15:20:21.275Z,74.95
2018-03-06T15:22:50.689Z,66.30
2018-03-06T15:25:20.120Z,64.78
2018-03-06T15:27:49.517Z,63.85
2018-03-06T15:30:18.973Z,68.18
2018-03-06T15:32:48.383Z,67.00
2018-03-06T15:35:17.817Z,69.55
2018-03-06T15:37:47.281Z,58.20
2018-03-06T15:40:16.693Z,64.80
2018-03-06T15:42:46.162Z,68.28
2018-03-06T15:45:15.543Z,76.15
2018-03-06T15:47:45.044Z,64.68
2018-03-06T15:50:15.297Z,75.93
2018-03-06T15:52:44.743Z,82.88
2018-03-06T15:55:14.654Z,93.03
2018-03-06T15:57:44.072Z,88.97
2018-03-06T16:00:13.486Z,94.72
2018-03-06T16:02:42.901Z,98.22
2018-03-06T16:05:12.434Z,84.37
2018-03-06T16:07:41.829Z,94.90
2018-03-06T16:10:11.305Z,94.57
2018-03-06T16:12:40.727Z,95.95
2018-03-06T16:15:10.221Z,102.82
2018-03-06T16:17:39.599Z,95.93
2018-03-06T16:20:09.360Z,108.40
2018-03-06T16:22:38.817Z,102.57
2018-03-06T16:25:09.252Z,110.68
2018-03-06T16:27:38.895Z,117.03
2018-03-06T16:30:08.310Z,116.18
2018-03-06T16:32:37.748Z,115.07
2018-03-06T16:35:07.233Z,106.90
2018-03-06T16:37:36.673Z,104.82
2018-03-06T16:40:06.351Z,104.43
2018-03-06T16:42:35.857Z,132.18
2018-03-06T16:45:05.517Z,102.97
2018-03-06T16:47:34.988Z,117.78
2018-03-06T16:50:04.443Z,111.62
2018-03-06T16:52:33.878Z,112.75
2018-03-06T16:55:03.640Z,104.32
2018-03-06T16:57:33.099Z,111.22
2018-03-06T17:00:02.522Z,106.22
2018-03-06T17:02:31.970Z,100.32
2018-03-06T17:05:01.456Z,117.50
2018-03-06T17:07:30.854Z,117.25
2018-03-06T17:10:00.285Z,112.70
2018-03-06T17:12:29.735Z,111.32
2018-03-06T17:14:59.179Z,111.35
2018-03-06T17:17:28.606Z,113.68
2018-03-06T17:19:58.106Z,114.93
2018-03-06T17:22:27.529Z,125.60
2018-03-06T17:24:57.308Z,105.12
2018-03-06T17:27:26.768Z,117.57
2018-03-06T17:29:56.172Z,110.28
2018-03-06T17:32:25.596Z,114.50
2018-03-06T17:34:55.118Z,103.68
2018-03-06T17:37:25.306Z,108.45
2018-03-06T17:39:54.734Z,113.32
2018-03-06T17:42:24.412Z,106.85
2018-03-06T17:44:53.812Z,112.40
2018-03-06T17:47:23.243Z,106.75
2018-03-06T17:49:52.671Z,113.60
2018-03-06T17:52:22.111Z,111.90
2018-03-06T17:54:51.524Z,109.82
2018-03-06T17:57:21.068Z,113.05
2018-03-06T17:59:50.578Z,105.97
2018-03-06T18:02:20.016Z,107.90
2018-03-06T18:04:49.435Z,105.57
2018-03-06T18:07:18.894Z,112.22
2018-03-06T18:09:48.326Z,108.57
2018-03-06T18:12:17.807Z,112.90
2018-03-06T18:14:47.274Z,104.70
2018-03-06T18:17:16.919Z,112.53
2018-03-06T18:19:46.384Z,104.75
2018-03-06T18:22:15.837Z,106.78
2018-03-06T18:24:45.793Z,102.05
2018-03-06T18:27:15.200Z,113.47
2018-03-06T18:29:44.655Z,100.62
2018-03-06T18:32:14.112Z,120.03
2018-03-06T18:34:43.778Z,111.90
2018-03-06T18:37:13.271Z,118.35
2018-03-06T18:39:42.676Z,101.47
2018-03-06T18:42:12.146Z,102.45
2018-03-06T18:44:41.544Z,102.50
2018-03-06T18:47:11.352Z,101.93
2018-03-06T18:49:46.788Z,112.30
2018-03-06T18:52:16.554Z,103.87
2018-03-06T18:54:46.012Z,103.95
2018-03-06T18:57:16.137Z,119.13
2018-03-06T18:59:45.568Z,106.15
2018-03-06T19:02:20.872Z,100.93
2018-03-06T19:04:56.082Z,94.15
2018-03-06T19:07:25.564Z,107.35
2018-03-06T19:09:54.973Z,110.25
2018-03-06T19:12:24.440Z,107.87
2018-03-06T19:14:53.880Z,108.55
2018-03-06T19:17:23.342Z,103.28
2018-03-06T19:19:52.842Z,106.37
2018-03-06T19:22:22.288Z,104.03
2018-03-06T19:24:51.733Z,87.50
2018-03-06T19:27:21.131Z,97.68
2018-03-06T19:29:50.585Z,96.65
2018-03-06T19:32:20.014Z,108.90
2018-03-06T19:34:49.463Z,101.50
2018-03-06T19:37:19.273Z,90.93
2018-03-06T19:39:48.682Z,95.62
2018-03-06T19:42:18.147Z,102.38
2018-03-06T19:44:47.625Z,102.10
2018-03-06T19:47:17.029Z,98.90
2018-03-06T19:49:46.495Z,114.35
2018-03-06T19:52:15.958Z,114.30
2018-03-06T19:54:45.380Z,115.72
2018-03-06T19:57:14.861Z,115.22
2018-03-06T19:59:44.288Z,109.57
2018-03-06T20:02:13.713Z,103.53
2018-03-06T20:04:43.189Z,109.12
2018-03-06T20:07:12.676Z,104.68
2018-03-06T20:09:42.595Z,114.43
2018-03-06T20:12:12.033Z,100.30
2018-03-06T20:14:47.340Z,91.65
2018-03-06T20:17:16.798Z,92.68
2018-03-06T20:19:46.191Z,102.35
2018-03-06T20:22:16.343Z,85.75
2018-03-06T20:24:52.181Z,92.40
2018-03-06T20:27:21.642Z,100.00
2018-03-06T20:29:51.071Z,94.00
2018-03-06T20:32:26.460Z,88.93
2018-03-06T20:34:55.887Z,86.82
2018-03-06T20:37:25.371Z,91.43
2018-03-06T20:40:00.522Z,84.23
2018-03-06T20:42:29.951Z,93.10
2018-03-06T20:44:59.394Z,85.97
2018-03-06T20:47:28.834Z,89.40
2018-03-06T20:49:58.308Z,82.07
2018-03-06T20:52:29.099Z,77.20
2018-03-06T20:55:04.547Z,83.32
2018-03-06T20:57:34.116Z,88.53
2018-03-06T21:00:03.593Z,88.10
2018-03-06T21:02:33.105Z,85.65
2018-03-06T21:05:02.593Z,95.95
2018-03-06T21:07:32.140Z,111.30
2018-03-06T21:10:01.554Z,102.80
2018-03-06T21:12:31.003Z,95.12
2018-03-06T21:15:00.398Z,92.62
2018-03-06T21:17:30.089Z,92.57
2018-03-06T21:19:59.611Z,92.47
2018-03-06T21:22:29.003Z,105.25
2018-03-06T21:24:59.090Z,89.87
2018-03-06T21:27:28.508Z,95.25
2018-03-06T21:29:57.924Z,107.50
2018-03-06T21:32:27.388Z,109.63
2018-03-06T21:34:56.790Z,107.25
2018-03-06T21:37:26.238Z,113.60
2018-03-06T21:39:55.666Z,113.15
2018-03-06T21:42:25.576Z,101.68
2018-03-06T21:44:54.999Z,105.35
2018-03-06T21:47:24.449Z,85.10
2018-03-06T21:49:53.874Z,96.10
2018-03-06T21:52:23.322Z,93.75
2018-03-06T21:54:52.783Z,85.53
2018-03-06T21:57:22.192Z,90.25
2018-03-06T21:59:51.689Z,94.35
2018-03-06T22:02:21.082Z,98.12
2018-03-06T22:04:50.508Z,86.28
2018-03-06T22:07:19.904Z,94.82
2018-03-06T22:09:49.338Z,88.30
2018-03-06T22:12:18.789Z,96.72
2018-03-06T22:14:48.245Z,97.95
2018-03-06T22:17:17.649Z,96.72
2018-03-06T22:19:47.073Z,93.80
2018-03-06T22:22:16.514Z,98.32
2018-03-06T22:24:45.927Z,98.15
2018-03-06T22:27:15.347Z,90.28
2018-03-06T22:29:44.782Z,94.90
2018-03-06T22:32:14.195Z,99.82
2018-03-06T22:34:43.656Z,97.88
2018-03-06T22:37:13.068Z,96.07
2018-03-06T22:39:42.484Z,99.13
2018-03-06T22:42:11.877Z,95.60
2018-03-06T22:44:41.317Z,100.70
2018-03-06T22:47:10.762Z,95.53
2018-03-06T22:49:40.195Z,90.18
2018-03-06T22:52:09.595Z,101.78
2018-03-06T22:54:39.051Z,104.07
2018-03-06T22:57:08.442Z,102.25
2018-03-06T22:59:37.898Z,98.10
2018-03-06T23:02:07.278Z,97.15
2018-03-06T23:04:36.708Z,98.57
2018-03-06T23:07:06.167Z,97.25
2018-03-06T23:09:35.606Z,88.62
2018-03-06T23:12:05.049Z,101.65
2018-03-06T23:14:35.156Z,97.28
2018-03-06T23:17:04.588Z,98.65
2018-03-06T23:19:34.055Z,90.35
2018-03-06T23:22:03.442Z,98.55
2018-03-06T23:24:32.881Z,99.50
2018-03-06T23:27:02.341Z,110.00
2018-03-06T23:29:31.756Z,104.55
2018-03-06T23:32:01.205Z,103.95
2018-03-06T23:34:30.617Z,95.43
2018-03-06T23:37:00.825Z,110.37
2018-03-06T23:39:30.254Z,100.95
2018-03-06T23:41:59.709Z,96.72
2018-03-06T23:44:29.141Z,103.05
2018-03-06T23:46:58.604Z,110.03
2018-03-06T23:49:28.348Z,109.18
2018-03-06T23:51:57.798Z,105.50
2018-03-06T23:54:27.223Z,91.18
2018-03-06T23:56:57.073Z,102.00
2018-03-06T23:59:26.511Z,98.87
